Time;durP1;ratioP1;P1;durP2;ratioP2;P2;SDS_P1;SDS_P2;PMS_P1;PMS_P2;Temp;Humidity;BMP_temperature;BMP_pressure;BME280_temperature;BME280_humidity;BME280_pressure;Samples;Min_cycle;Max_cycle;Signal;HPM_P1;HPM_P2
2022/01/04 00:01:15;;;;;;;2.07;1.40;;;8.50;99.90;;;;;;2613286;46;21047;-78
2022/01/04 00:03:41;;;;;;;0.97;0.97;;;8.40;99.90;;;;;;2613674;47;20407;-79
2022/01/04 00:06:08;;;;;;;2.50;1.20;;;8.40;99.90;;;;;;2614502;54;20442;-79
2022/01/04 00:08:34;;;;;;;4.33;1.60;;;8.40;99.90;;;;;;2612729;54;20415;-79
2022/01/04 00:11:16;;;;;;;1.73;1.33;;;8.40;99.90;;;;;;2611948;54;21026;-79
2022/01/04 00:13:43;;;;;;;1.80;1.20;;;8.40;99.90;;;;;;2610324;54;20432;-79
2022/01/04 00:16:10;;;;;;;3.40;1.50;;;8.50;99.90;;;;;;2612612;54;20403;-80
2022/01/04 00:18:38;;;;;;;1.63;1.53;;;8.40;99.90;;;;;;2612526;54;20427;-79
2022/01/04 00:21:05;;;;;;;1.53;1.10;;;8.40;99.90;;;;;;2614200;39;20805;-78
2022/01/04 00:23:32;;;;;;;5.33;1.70;;;8.40;99.90;;;;;;2614113;54;20439;-79
2022/01/04 00:25:58;;;;;;;2.13;1.50;;;8.40;99.90;;;;;;2613016;46;20465;-78
2022/01/04 00:28:27;;;;;;;3.00;2.03;;;8.40;99.90;;;;;;2612340;47;20989;-80
2022/01/04 00:30:53;;;;;;;2.53;1.27;;;8.40;99.90;;;;;;2612867;54;21011;-79
2022/01/04 00:33:19;;;;;;;3.60;1.90;;;8.40;99.90;;;;;;2613017;54;20390;-78
2022/01/04 00:35:45;;;;;;;5.10;2.37;;;8.40;99.90;;;;;;2614525;47;20175;-79
2022/01/04 00:38:11;;;;;;;3.03;1.93;;;8.40;99.90;;;;;;2614049;54;20427;-80
2022/01/04 00:40:37;;;;;;;2.30;1.40;;;8.40;99.90;;;;;;2613189;54;20403;-79
2022/01/04 00:43:04;;;;;;;3.43;1.37;;;8.40;99.90;;;;;;2613229;47;20437;-78
2022/01/04 00:45:32;;;;;;;6.70;1.40;;;8.30;99.90;;;;;;2614552;54;20427;-78
2022/01/04 00:50:29;;;;;;;1.70;1.60;;;8.30;99.90;;;;;;2614867;54;20396;-79
2022/01/04 00:52:55;;;;;;;1.93;1.70;;;8.30;99.90;;;;;;2612235;47;20407;-79
2022/01/04 00:55:22;;;;;;;1.60;1.50;;;8.20;99.90;;;;;;2614610;54;20450;-79
2022/01/04 00:57:48;;;;;;;2.40;1.40;;;8.30;99.90;;;;;;2612513;54;20417;-80
2022/01/04 01:00:16;;;;;;;2.07;1.10;;;8.40;99.90;;;;;;2612768;54;20555;-79
2022/01/04 01:02:43;;;;;;;2.90;1.60;;;8.20;99.90;;;;;;2613400;54;20954;-78
2022/01/04 01:05:09;;;;;;;2.67;1.40;;;8.20;99.90;;;;;;2614193;54;20453;-80
2022/01/04 01:07:36;;;;;;;1.53;1.43;;;8.20;99.90;;;;;;2612617;54;20471;-79
2022/01/04 01:12:53;;;;;;;2.67;1.90;;;8.40;99.90;;;;;;2610489;54;20405;-78
2022/01/04 01:15:19;;;;;;;2.23;2.07;;;8.30;99.90;;;;;;2612524;54;20454;-79
2022/01/04 01:17:45;;;;;;;4.17;3.13;;;8.20;99.90;;;;;;2613664;54;20392;-78
2022/01/04 01:20:13;;;;;;;3.60;2.30;;;8.30;99.90;;;;;;2613232;39;20788;-79
2022/01/04 01:22:40;;;;;;;3.90;2.23;;;8.20;99.90;;;;;;2613382;54;20424;-78
2022/01/04 01:25:08;;;;;;;4.33;3.47;;;8.00;99.90;;;;;;2611839;39;20893;-78
2022/01/04 01:27:34;;;;;;;4.43;2.57;;;8.00;99.90;;;;;;2611610;54;20426;-78
2022/01/04 01:30:01;;;;;;;6.20;3.27;;;8.10;99.90;;;;;;2614184;54;20418;-79
2022/01/04 01:32:26;;;;;;;3.77;3.40;;;8.00;99.90;;;;;;2612050;39;20813;-79
2022/01/04 01:34:52;;;;;;;4.17;3.30;;;8.10;99.90;;;;;;2613519;47;20569;-78
2022/01/04 01:37:18;;;;;;;5.43;3.30;;;8.10;99.90;;;;;;2612827;54;20683;-78
2022/01/04 01:39:44;;;;;;;3.93;3.13;;;8.00;99.90;;;;;;2613453;54;20427;-79
2022/01/04 01:42:10;;;;;;;4.30;3.90;;;8.00;99.90;;;;;;2610539;54;21044;-79
2022/01/04 01:44:37;;;;;;;3.70;3.17;;;8.00;99.90;;;;;;2612876;54;20166;-78
2022/01/04 01:47:03;;;;;;;3.87;3.33;;;8.00;99.90;;;;;;2612989;54;20463;-79
2022/01/04 01:49:29;;;;;;;8.60;4.17;;;8.00;99.90;;;;;;2611083;54;21257;-78
2022/01/04 01:51:55;;;;;;;4.53;3.60;;;8.00;99.90;;;;;;2609483;54;20424;-79
2022/01/04 01:54:21;;;;;;;5.87;4.00;;;8.00;99.90;;;;;;2610361;39;20904;-80
2022/01/04 01:56:47;;;;;;;5.93;3.50;;;8.00;99.90;;;;;;2609830;54;20439;-80
2022/01/04 01:59:14;;;;;;;4.60;3.50;;;8.00;99.90;;;;;;2609441;54;20158;-79
2022/01/04 02:01:40;;;;;;;3.83;3.20;;;8.00;99.90;;;;;;2610725;54;20418;-80
2022/01/04 02:04:06;;;;;;;4.97;4.00;;;8.00;99.90;;;;;;2613524;54;20415;-79
2022/01/04 02:06:32;;;;;;;4.60;3.33;;;7.90;99.90;;;;;;2611386;54;20940;-79
2022/01/04 02:09:00;;;;;;;5.13;3.10;;;8.00;99.90;;;;;;2610250;54;20407;-78
2022/01/04 02:11:30;;;;;;;3.70;3.20;;;7.90;99.90;;;;;;2611217;54;20431;-78
2022/01/04 02:13:58;;;;;;;6.30;3.47;;;7.90;99.90;;;;;;2610157;54;20418;-79
2022/01/04 02:16:29;;;;;;;5.07;3.53;;;8.00;99.90;;;;;;2609676;47;20409;-78
2022/01/04 02:19:04;;;;;;;7.67;3.27;;;8.00;99.90;;;;;;2610553;47;20493;-78
2022/01/04 02:21:31;;;;;;;7.73;3.87;;;8.00;99.90;;;;;;2612810;47;20417;-78
2022/01/04 02:23:57;;;;;;;7.37;4.27;;;7.90;99.90;;;;;;2612538;51;20416;-78
2022/01/04 02:26:23;;;;;;;4.50;3.27;;;7.80;99.90;;;;;;2612569;51;20413;-78
2022/01/04 02:28:51;;;;;;;5.37;3.90;;;7.70;99.90;;;;;;2612880;47;20404;-78
2022/01/04 02:31:17;;;;;;;4.40;3.00;;;7.80;99.90;;;;;;2612111;54;20447;-79
2022/01/04 02:33:42;;;;;;;4.90;3.50;;;7.80;99.90;;;;;;2613143;47;20994;-78
2022/01/04 02:36:09;;;;;;;5.87;3.63;;;7.90;99.90;;;;;;2613530;39;20586;-78
2022/01/04 02:38:37;;;;;;;3.83;1.90;;;7.90;99.90;;;;;;2613703;54;20676;-80
2022/01/04 02:41:04;;;;;;;4.70;3.50;;;7.80;99.90;;;;;;2612817;54;20543;-79
2022/01/04 02:43:30;;;;;;;5.23;4.40;;;7.80;99.90;;;;;;2612109;47;21437;-79
2022/01/04 02:45:57;;;;;;;6.80;3.60;;;7.80;99.90;;;;;;2613425;47;20483;-79
2022/01/04 02:48:24;;;;;;;2.93;2.63;;;7.90;99.90;;;;;;2612378;54;20406;-78
2022/01/04 02:50:50;;;;;;;4.53;3.57;;;7.80;99.90;;;;;;2613958;54;20518;-79
2022/01/04 02:53:17;;;;;;;5.43;3.97;;;7.80;99.90;;;;;;2614189;54;20415;-78
2022/01/04 02:55:43;;;;;;;15.10;4.00;;;7.80;99.90;;;;;;2614265;54;20469;-78
2022/01/04 02:58:09;;;;;;;4.27;3.03;;;7.80;99.90;;;;;;2613372;47;20427;-78
2022/01/04 03:00:35;;;;;;;4.70;4.00;;;7.80;99.90;;;;;;2613415;54;20962;-78
2022/01/04 03:03:01;;;;;;;5.60;4.30;;;7.70;99.90;;;;;;2613903;54;20510;-78
2022/01/04 03:05:27;;;;;;;6.07;4.90;;;7.70;99.90;;;;;;2615435;54;20522;-78
2022/01/04 03:07:52;;;;;;;7.87;4.60;;;7.70;99.90;;;;;;2613285;39;20851;-78
2022/01/04 03:10:18;;;;;;;6.93;4.00;;;7.70;99.90;;;;;;2611656;54;20531;-79
2022/01/04 03:12:44;;;;;;;4.53;3.57;;;7.70;99.90;;;;;;2611496;46;20201;-78
2022/01/04 03:15:13;;;;;;;4.70;4.20;;;7.60;99.90;;;;;;2610914;47;20162;-78
2022/01/04 03:17:41;;;;;;;9.40;4.13;;;7.60;99.90;;;;;;2610641;54;20195;-79
2022/01/04 03:20:10;;;;;;;5.80;4.13;;;7.70;99.90;;;;;;2612200;54;20454;-78
2022/01/04 03:22:36;;;;;;;5.40;4.33;;;7.60;99.90;;;;;;2613124;54;20452;-78
2022/01/04 03:25:05;;;;;;;4.33;3.70;;;7.70;99.90;;;;;;2614999;39;20810;-78
2022/01/04 03:27:31;;;;;;;6.10;3.60;;;7.70;99.90;;;;;;2614452;39;20821;-78
2022/01/04 03:29:58;;;;;;;9.50;4.47;;;7.70;99.90;;;;;;2614990;39;20818;-78
2022/01/04 03:32:23;;;;;;;7.17;4.93;;;7.80;99.90;;;;;;2613351;47;20450;-77
2022/01/04 03:34:49;;;;;;;7.57;4.80;;;7.60;99.90;;;;;;2614698;54;20439;-78
2022/01/04 03:37:15;;;;;;;6.03;4.67;;;7.60;99.90;;;;;;2613441;54;20767;-79
2022/01/04 03:39:41;;;;;;;6.77;4.20;;;7.70;99.90;;;;;;2612691;54;20422;-79
2022/01/04 03:42:07;;;;;;;4.40;3.77;;;7.70;99.90;;;;;;2611052;47;20207;-79
2022/01/04 03:44:33;;;;;;;5.60;4.00;;;7.60;99.90;;;;;;2615106;47;20407;-78
2022/01/04 03:46:59;;;;;;;10.50;5.30;;;7.70;99.90;;;;;;2612277;54;20886;-78
2022/01/04 03:49:25;;;;;;;5.60;3.90;;;7.70;99.90;;;;;;2612197;54;20410;-78
2022/01/04 03:51:52;;;;;;;7.20;4.27;;;7.60;99.90;;;;;;2610942;54;20427;-79
2022/01/04 03:54:19;;;;;;;7.17;4.43;;;7.70;99.90;;;;;;2613594;54;20412;-79
2022/01/04 03:56:46;;;;;;;6.03;4.27;;;7.60;99.90;;;;;;2613988;54;20418;-79
2022/01/04 03:59:14;;;;;;;5.30;4.77;;;7.70;99.90;;;;;;2613951;54;20399;-79
2022/01/04 04:01:40;;;;;;;6.90;4.73;;;7.70;99.90;;;;;;2612782;54;20398;-79
2022/01/04 04:04:06;;;;;;;7.63;5.30;;;7.70;99.90;;;;;;2613963;47;20990;-79
2022/01/04 04:06:32;;;;;;;7.33;5.30;;;7.70;99.90;;;;;;2614117;47;20431;-78
2022/01/04 04:08:58;;;;;;;7.27;4.87;;;7.60;99.90;;;;;;2613677;54;20427;-78
2022/01/04 04:11:25;;;;;;;5.43;4.93;;;7.70;99.90;;;;;;2612996;54;20406;-78
2022/01/04 04:13:51;;;;;;;6.13;4.97;;;7.70;99.90;;;;;;2611181;54;20399;-79
2022/01/04 04:16:17;;;;;;;10.60;5.30;;;7.70;99.90;;;;;;2613849;54;20427;-79
2022/01/04 04:18:43;;;;;;;4.93;4.43;;;7.90;99.90;;;;;;2615352;54;20935;-79
2022/01/04 04:21:08;;;;;;;7.13;4.10;;;7.90;99.90;;;;;;2614846;54;20419;-78
2022/01/04 04:23:35;;;;;;;6.33;4.90;;;7.70;99.90;;;;;;2614237;54;20157;-78
2022/01/04 04:26:00;;;;;;;4.40;4.00;;;7.60;99.90;;;;;;2614059;54;20158;-78
2022/01/04 04:28:26;;;;;;;4.97;3.97;;;7.80;99.90;;;;;;2613901;54;20974;-79
2022/01/04 04:30:52;;;;;;;6.43;4.80;;;7.80;99.90;;;;;;2613227;54;20178;-78
2022/01/04 04:33:18;;;;;;;9.20;4.17;;;7.80;99.90;;;;;;2613437;54;20541;-80
2022/01/04 04:35:44;;;;;;;4.60;4.10;;;7.70;99.90;;;;;;2614348;54;20423;-80
2022/01/04 04:38:10;;;;;;;6.33;5.10;;;7.70;99.90;;;;;;2614842;54;20159;-79
2022/01/04 04:40:36;;;;;;;4.43;4.03;;;7.70;99.90;;;;;;2615000;31;20895;-79
2022/01/04 04:43:02;;;;;;;4.87;4.13;;;7.80;99.90;;;;;;2613370;54;20433;-79
2022/01/04 04:45:28;;;;;;;7.30;4.63;;;7.70;99.90;;;;;;2615921;54;20427;-79
2022/01/04 04:47:54;;;;;;;6.57;5.07;;;7.80;99.90;;;;;;2611407;54;20424;-78
2022/01/04 04:50:20;;;;;;;6.67;5.47;;;7.90;99.90;;;;;;2614956;54;20404;-80
2022/01/04 04:52:46;;;;;;;7.37;5.00;;;7.90;99.90;;;;;;2612098;39;21219;-79
2022/01/04 04:55:13;;;;;;;5.30;4.80;;;7.80;99.90;;;;;;2613305;54;20416;-78
2022/01/04 04:57:39;;;;;;;5.10;4.00;;;7.70;99.90;;;;;;2612761;54;21518;-79
2022/01/04 05:00:08;;;;;;;4.73;4.27;;;7.70;99.90;;;;;;2614082;47;20410;-79
2022/01/04 05:02:36;;;;;;;4.70;4.20;;;7.70;99.90;;;;;;2614290;54;20483;-80
2022/01/04 05:05:02;;;;;;;6.00;4.37;;;7.60;99.90;;;;;;2613933;39;20884;-78
2022/01/04 05:07:28;;;;;;;5.87;3.97;;;7.90;99.90;;;;;;2614505;54;20965;-79
2022/01/04 05:09:54;;;;;;;6.23;4.60;;;7.80;99.90;;;;;;2615214;54;20428;-79
2022/01/04 05:12:20;;;;;;;7.33;4.90;;;7.70;99.90;;;;;;2612282;39;20855;-79
2022/01/04 05:14:46;;;;;;;5.50;5.00;;;7.70;99.90;;;;;;2610932;39;20967;-79
2022/01/04 05:17:14;;;;;;;5.33;4.07;;;7.80;99.90;;;;;;2613463;54;20426;-79
2022/01/04 05:19:41;;;;;;;5.40;3.93;;;7.70;99.90;;;;;;2615331;54;20415;-79
2022/01/04 05:22:07;;;;;;;7.30;5.00;;;7.70;99.90;;;;;;2613339;54;21034;-79
2022/01/04 05:24:34;;;;;;;6.83;5.93;;;7.70;99.90;;;;;;2614834;47;21053;-80
2022/01/04 05:27:00;;;;;;;7.83;5.23;;;7.60;99.90;;;;;;2613150;54;20399;-78
2022/01/04 05:29:26;;;;;;;4.40;3.93;;;7.70;99.90;;;;;;2612697;47;20423;-79
2022/01/04 05:31:52;;;;;;;6.33;4.00;;;7.60;99.90;;;;;;2612791;54;20447;-79
2022/01/04 05:34:18;;;;;;;7.10;5.93;;;7.60;99.90;;;;;;2613351;47;20423;-80
2022/01/04 05:36:44;;;;;;;6.77;4.57;;;7.60;99.90;;;;;;2612902;54;21075;-80
2022/01/04 05:39:10;;;;;;;6.40;5.80;;;7.60;99.90;;;;;;2614506;47;20952;-80
2022/01/04 05:41:36;;;;;;;7.33;5.20;;;7.60;99.90;;;;;;2610132;51;20166;-80
2022/01/04 05:44:03;;;;;;;7.00;5.77;;;7.60;99.90;;;;;;2614454;54;20423;-80
2022/01/04 05:46:28;;;;;;;7.93;5.47;;;7.50;99.90;;;;;;2609396;54;20176;-81
2022/01/04 05:48:56;;;;;;;8.47;6.60;;;7.60;99.90;;;;;;2611623;54;20411;-80
2022/01/04 05:51:21;;;;;;;7.63;6.27;;;7.60;99.90;;;;;;2611607;47;20265;-80
2022/01/04 05:53:47;;;;;;;7.70;6.27;;;7.70;99.90;;;;;;2613654;54;20423;-79
2022/01/04 05:56:13;;;;;;;7.17;5.73;;;7.70;99.90;;;;;;2609998;54;20154;-81
2022/01/04 05:58:39;;;;;;;6.53;5.83;;;7.70;99.90;;;;;;2611194;54;20151;-80
2022/01/04 06:01:07;;;;;;;5.97;5.40;;;7.60;99.90;;;;;;2612397;47;21958;-81
2022/01/04 06:03:33;;;;;;;6.17;5.57;;;7.60;99.90;;;;;;2614923;47;20430;-79
2022/01/04 06:05:59;;;;;;;11.67;7.10;;;7.60;99.90;;;;;;2612084;47;20851;-80
2022/01/04 06:08:31;;;;;;;10.50;7.00;;;7.70;99.90;;;;;;2612108;54;20438;-80
2022/01/04 06:10:57;;;;;;;8.30;6.57;;;7.60;99.90;;;;;;2613857;54;20948;-79
2022/01/04 06:16:08;;;;;;;10.00;6.73;;;7.70;99.90;;;;;;2611430;47;20971;-79
2022/01/04 06:18:34;;;;;;;7.93;7.13;;;7.70;99.90;;;;;;2613905;47;20422;-80
2022/01/04 06:21:00;;;;;;;9.20;7.90;;;7.80;99.90;;;;;;2612513;54;22228;-80
2022/01/04 06:23:25;;;;;;;10.50;6.60;;;7.70;99.90;;;;;;2615445;54;20400;-79
2022/01/04 06:25:53;;;;;;;9.30;6.63;;;7.70;99.90;;;;;;2613710;46;20457;-80
2022/01/04 06:28:19;;;;;;;9.93;7.70;;;7.70;99.90;;;;;;2612630;54;20427;-81
2022/01/04 06:30:46;;;;;;;9.43;6.90;;;7.70;99.90;;;;;;2611384;54;20414;-80
2022/01/04 06:33:12;;;;;;;10.33;7.17;;;7.60;99.90;;;;;;2611656;54;20610;-79
2022/01/04 06:35:38;;;;;;;8.37;6.40;;;7.70;99.90;;;;;;2611237;54;20414;-80
2022/01/04 06:38:04;;;;;;;11.03;8.17;;;7.60;99.90;;;;;;2612634;54;20430;-80
2022/01/04 06:40:30;;;;;;;17.70;8.20;;;7.60;99.90;;;;;;2613507;47;21411;-80
2022/01/04 06:42:56;;;;;;;10.10;7.30;;;7.70;99.90;;;;;;2613251;47;20474;-80
2022/01/04 06:45:22;;;;;;;9.60;8.17;;;7.80;99.90;;;;;;2612547;54;20423;-81
2022/01/04 06:47:48;;;;;;;10.30;8.20;;;7.80;99.90;;;;;;2614114;54;20407;-80
2022/01/04 06:50:15;;;;;;;12.43;8.53;;;7.80;99.90;;;;;;2612736;51;20167;-80
2022/01/04 06:52:42;;;;;;;12.73;8.47;;;7.70;99.90;;;;;;2613387;54;21254;-80
2022/01/04 06:55:08;;;;;;;10.27;8.63;;;7.70;99.90;;;;;;2612501;54;20425;-81
2022/01/04 06:57:34;;;;;;;12.67;8.23;;;7.70;99.90;;;;;;2612266;47;20405;-81
2022/01/04 07:00:00;;;;;;;14.13;9.03;;;7.70;99.90;;;;;;2613117;54;20522;-80
2022/01/04 07:02:26;;;;;;;9.90;8.03;;;7.70;99.90;;;;;;2613509;39;20934;-79
2022/01/04 07:04:52;;;;;;;11.23;8.90;;;7.70;99.90;;;;;;2613948;47;20446;-79
2022/01/04 07:07:18;;;;;;;10.80;8.57;;;7.80;99.90;;;;;;2613458;54;20159;-80
2022/01/04 07:09:44;;;;;;;12.03;7.80;;;7.80;99.90;;;;;;2613748;47;20200;-80
2022/01/04 07:12:11;;;;;;;17.50;8.60;;;7.70;99.90;;;;;;2611587;54;20442;-79
2022/01/04 07:14:37;;;;;;;10.70;5.43;;;7.70;99.90;;;;;;2611256;54;20407;-79
2022/01/04 07:17:03;;;;;;;11.80;9.17;;;7.60;99.90;;;;;;2611613;54;20431;-80
2022/01/04 07:19:29;;;;;;;15.83;9.47;;;7.60;99.90;;;;;;2613260;54;20438;-80
2022/01/04 07:21:55;;;;;;;11.70;8.90;;;7.70;99.90;;;;;;2614296;54;20507;-80
2022/01/04 07:24:20;;;;;;;13.60;9.77;;;7.70;99.90;;;;;;2615209;39;20783;-80
2022/01/04 07:26:46;;;;;;;15.90;10.57;;;7.70;99.90;;;;;;2615340;54;20502;-80
2022/01/04 07:29:12;;;;;;;12.03;9.90;;;7.60;99.90;;;;;;2615130;39;20259;-80
2022/01/04 07:31:38;;;;;;;13.87;10.73;;;7.70;99.90;;;;;;2614703;54;20307;-80
2022/01/04 07:34:04;;;;;;;13.80;10.33;;;7.70;99.90;;;;;;2614832;47;20709;-79
2022/01/04 07:36:31;;;;;;;18.00;10.50;;;7.80;99.90;;;;;;2615816;54;20485;-80
2022/01/04 07:38:58;;;;;;;16.30;9.47;;;7.70;99.90;;;;;;2614879;54;20364;-80
2022/01/04 07:41:24;;;;;;;12.37;9.70;;;7.60;99.90;;;;;;2615280;54;20403;-80
2022/01/04 07:43:50;;;;;;;14.53;10.40;;;7.60;99.90;;;;;;2611973;47;20882;-81
2022/01/04 07:46:16;;;;;;;15.93;11.07;;;7.70;99.90;;;;;;2612664;39;20821;-80
2022/01/04 07:48:42;;;;;;;15.17;10.17;;;7.80;99.90;;;;;;2609250;54;20419;-80
2022/01/04 07:51:08;;;;;;;14.10;10.80;;;7.80;99.90;;;;;;2611383;54;20450;-80
2022/01/04 07:53:34;;;;;;;15.20;10.70;;;7.60;99.90;;;;;;2611145;54;20964;-82
2022/01/04 07:56:00;;;;;;;17.70;11.57;;;7.70;99.90;;;;;;2612717;54;20411;-81
2022/01/04 07:58:29;;;;;;;10.40;7.80;;;7.60;99.90;;;;;;2614370;51;20423;-81
2022/01/04 08:00:58;;;;;;;19.90;10.90;;;7.60;99.90;;;;;;2611082;54;20411;-81
2022/01/04 08:03:25;;;;;;;16.00;11.83;;;7.60;99.90;;;;;;2612331;46;20447;-82
2022/01/04 08:05:51;;;;;;;15.17;11.27;;;7.60;99.90;;;;;;2610342;47;20427;-81
2022/01/04 08:08:17;;;;;;;17.20;12.67;;;7.60;99.90;;;;;;2609362;51;20468;-81
2022/01/04 08:10:48;;;;;;;16.70;11.93;;;7.70;99.90;;;;;;2609451;47;20462;-81
2022/01/04 08:13:14;;;;;;;18.17;11.90;;;7.60;99.90;;;;;;2612011;47;20553;-81
2022/01/04 08:15:41;;;;;;;15.80;11.83;;;7.70;99.90;;;;;;2612903;47;20419;-81
2022/01/04 08:18:07;;;;;;;17.40;12.50;;;7.70;99.90;;;;;;2612394;54;20468;-81
2022/01/04 08:20:35;;;;;;;21.07;12.03;;;7.80;99.90;;;;;;2612617;54;20412;-81
2022/01/04 08:23:02;;;;;;;23.77;11.90;;;7.90;99.90;;;;;;2613250;47;20431;-81
2022/01/04 08:25:31;;;;;;;16.43;11.47;;;7.70;99.90;;;;;;2613550;39;20823;-81
2022/01/04 08:27:58;;;;;;;17.07;11.13;;;7.70;99.90;;;;;;2610420;47;20418;-80
2022/01/04 08:30:24;;;;;;;26.13;12.97;;;7.60;99.90;;;;;;2612695;54;21027;-81
2022/01/04 08:32:51;;;;;;;20.07;11.80;;;7.60;99.90;;;;;;2613088;47;20464;-80
2022/01/04 08:35:18;;;;;;;21.40;12.23;;;7.60;99.90;;;;;;2613694;39;20481;-81
2022/01/04 08:37:44;;;;;;;18.83;12.00;;;7.60;99.90;;;;;;2613118;47;20438;-81
2022/01/04 08:40:11;;;;;;;20.13;11.73;;;7.60;99.90;;;;;;2613970;47;20511;-81
2022/01/04 08:42:49;;;;;;;16.33;11.70;;;7.60;99.90;;;;;;2611982;54;20981;-81
2022/01/04 08:45:17;;;;;;;14.60;10.07;;;7.60;99.90;;;;;;2610609;46;20428;-80
2022/01/04 08:47:47;;;;;;;20.00;12.03;;;7.50;99.90;;;;;;2612945;47;20455;-79
2022/01/04 08:50:15;;;;;;;18.00;12.20;;;7.60;99.90;;;;;;2610806;47;20398;-80
2022/01/04 08:52:54;;;;;;;17.77;11.60;;;7.60;99.90;;;;;;2612710;47;20439;-79
2022/01/04 08:55:30;;;;;;;15.53;10.83;;;7.60;99.90;;;;;;2612425;47;20419;-82
2022/01/04 08:57:56;;;;;;;15.57;11.20;;;7.60;99.90;;;;;;2612201;47;21034;-82
2022/01/04 09:00:23;;;;;;;18.17;11.93;;;7.60;99.90;;;;;;2612362;47;20436;-79
2022/01/04 09:02:53;;;;;;;16.30;10.10;;;7.70;99.90;;;;;;2612077;54;20519;-80
2022/01/04 09:05:19;;;;;;;17.57;11.60;;;7.70;99.90;;;;;;2612968;47;20445;-82
2022/01/04 09:07:45;;;;;;;17.93;10.83;;;7.60;99.90;;;;;;2611821;47;20523;-78
2022/01/04 09:10:11;;;;;;;16.43;10.30;;;7.60;99.90;;;;;;2611436;47;20470;-80
2022/01/04 09:20:45;;;;;;;14.80;8.60;;;7.70;99.90;;;;;;2612772;47;20426;-79
2022/01/04 09:23:15;;;;;;;12.27;7.97;;;7.70;99.90;;;;;;2612025;47;20435;-80
2022/01/04 09:25:43;;;;;;;14.03;8.30;;;7.60;99.90;;;;;;2611030;54;21155;-80
2022/01/04 09:28:09;;;;;;;16.00;7.80;;;7.60;99.90;;;;;;2611655;47;20402;-80
2022/01/04 09:30:35;;;;;;;11.60;5.57;;;7.50;99.90;;;;;;2612456;54;20391;-82
2022/01/04 09:33:08;;;;;;;14.03;8.77;;;7.50;99.90;;;;;;2613436;54;20431;-78
2022/01/04 09:35:36;;;;;;;11.63;9.33;;;7.50;99.90;;;;;;2612715;47;20483;-82
2022/01/04 09:38:04;;;;;;;16.03;8.93;;;7.60;99.90;;;;;;2612361;54;20412;-79
2022/01/04 09:40:42;;;;;;;15.70;9.33;;;7.70;99.90;;;;;;2611120;54;20427;-80
2022/01/04 09:43:12;;;;;;;17.00;10.00;;;7.60;99.90;;;;;;2612840;54;20407;-80
2022/01/04 09:45:38;;;;;;;15.03;9.37;;;7.80;99.90;;;;;;2611305;47;20552;-79
2022/01/04 09:48:07;;;;;;;15.93;9.20;;;7.80;99.90;;;;;;2612390;47;20439;-79
2022/01/04 09:50:45;;;;;;;15.57;10.10;;;7.80;99.90;;;;;;2612508;47;21070;-79
2022/01/04 09:53:19;;;;;;;17.07;10.33;;;8.00;99.90;;;;;;2611521;47;20422;-79
2022/01/04 09:55:50;;;;;;;12.30;8.97;;;7.90;99.90;;;;;;2612755;47;20471;-81
2022/01/04 09:58:27;;;;;;;12.40;8.57;;;7.90;99.90;;;;;;2612127;54;20443;-80
2022/01/04 10:00:56;;;;;;;9.07;6.93;;;7.80;99.90;;;;;;2611934;39;20490;-80
2022/01/04 10:03:41;;;;;;;15.80;8.97;;;7.70;99.90;;;;;;2610431;47;20968;-79
2022/01/04 10:06:39;;;;;;;12.43;8.67;;;7.70;99.90;;;;;;2611404;54;20420;-82
2022/01/04 10:09:51;;;;;;;11.60;8.73;;;7.90;99.90;;;;;;2611101;54;20518;-80
2022/01/04 10:13:11;;;;;;;15.23;8.40;;;7.80;99.90;;;;;;2610801;47;20455;-83
2022/01/04 10:16:12;;;;;;;9.80;5.80;;;7.80;99.90;;;;;;2612003;54;20411;-79
2022/01/04 10:18:56;;;;;;;10.53;7.30;;;7.70;99.90;;;;;;2610791;54;20415;-79
2022/01/04 10:21:35;;;;;;;10.87;7.53;;;7.70;99.90;;;;;;2612749;47;20419;-81
2022/01/04 10:24:06;;;;;;;12.23;8.70;;;7.60;99.90;;;;;;2613469;47;20439;-80
2022/01/04 10:26:52;;;;;;;11.93;7.40;;;7.70;99.90;;;;;;2612522;54;20437;-81
2022/01/04 10:29:52;;;;;;;;;;;;;;;;;;;;;
2022/01/04 10:32:51;;;;;;;10.17;7.13;;;7.70;99.90;;;;;;2612431;47;20453;-82
2022/01/04 10:36:19;;;;;;;8.37;7.10;;;7.70;99.90;;;;;;2613503;39;20785;-81
2022/01/04 10:43:07;;;;;;;10.80;7.57;;;7.70;99.90;;;;;;2613059;47;20982;-80
2022/01/04 10:46:00;;;;;;;12.33;8.60;;;7.70;99.90;;;;;;2612298;47;20427;-79
2022/01/04 10:51:34;;;;;;;13.50;7.30;;;7.70;99.90;;;;;;2682543;36;20535;-80
2022/01/04 10:54:09;;;;;;;13.17;8.43;;;7.70;99.90;;;;;;2616813;47;20494;-79
2022/01/04 10:56:40;;;;;;;12.03;9.97;;;7.70;99.90;;;;;;2617230;47;20416;-81
2022/01/04 10:59:09;;;;;;;16.60;11.10;;;7.70;99.90;;;;;;2617068;47;20411;-81
2022/01/04 11:01:44;;;;;;;18.17;9.60;;;7.80;99.90;;;;;;2621550;47;20526;-79
2022/01/04 11:04:21;;;;;;;18.03;11.73;;;7.70;99.90;;;;;;2617654;47;20423;-81
2022/01/04 11:06:49;;;;;;;14.93;11.47;;;7.70;99.90;;;;;;2620230;47;20427;-79
2022/01/04 11:09:16;;;;;;;8.70;7.00;;;7.80;99.90;;;;;;2618079;54;20515;-79
2022/01/04 11:11:43;;;;;;;20.93;11.80;;;7.70;99.90;;;;;;2618008;47;20418;-80
2022/01/04 11:14:36;;;;;;;9.43;7.80;;;7.80;99.90;;;;;;2617624;47;20424;-80
2022/01/04 11:17:12;;;;;;;11.83;6.80;;;7.80;99.90;;;;;;2617907;51;20435;-79
2022/01/04 11:19:39;;;;;;;16.27;12.43;;;7.80;99.90;;;;;;2617302;47;20419;-81
2022/01/04 11:22:08;;;;;;;12.27;8.70;;;7.90;99.90;;;;;;2617494;47;20464;-79
2022/01/04 11:24:35;;;;;;;12.40;9.60;;;7.80;99.90;;;;;;2617479;46;20428;-80
2022/01/04 11:27:03;;;;;;;15.87;11.30;;;7.80;99.90;;;;;;2617922;47;20998;-80
2022/01/04 11:29:34;;;;;;;18.63;13.60;;;7.80;99.90;;;;;;2617681;47;22337;-80
2022/01/04 11:32:08;;;;;;;20.17;11.37;;;7.80;99.90;;;;;;2617576;54;20414;-80
2022/01/04 11:34:35;;;;;;;17.73;12.10;;;7.90;99.90;;;;;;2635434;36;20509;-79
2022/01/04 11:37:04;;;;;;;19.10;14.70;;;7.90;99.90;;;;;;2617668;47;20441;-79
2022/01/04 11:39:47;;;;;;;13.00;8.90;;;7.90;99.90;;;;;;2617843;39;20581;-79
2022/01/04 11:42:32;;;;;;;21.00;16.00;;;7.90;99.90;;;;;;2617643;47;20478;-79
2022/01/04 11:45:01;;;;;;;16.90;12.13;;;7.90;99.90;;;;;;2617973;47;20405;-79
2022/01/04 11:47:30;;;;;;;20.23;14.20;;;7.90;99.90;;;;;;2617547;47;20962;-79
2022/01/04 11:50:16;;;;;;;21.33;15.73;;;8.00;99.90;;;;;;2617530;47;20569;-80
2022/01/04 11:52:50;;;;;;;17.93;13.20;;;8.00;99.90;;;;;;2617576;54;20490;-79
2022/01/04 11:55:29;;;;;;;20.83;15.23;;;8.10;99.90;;;;;;2617496;47;20417;-81
2022/01/04 11:57:58;;;;;;;20.83;14.40;;;8.20;99.90;;;;;;2617826;47;20466;-81
2022/01/04 12:00:44;;;;;;;16.13;11.70;;;8.20;99.90;;;;;;2617490;47;20437;-78
2022/01/04 12:03:14;;;;;;;18.43;14.33;;;8.10;99.90;;;;;;2617728;47;20493;-79
2022/01/04 12:06:00;;;;;;;20.17;15.47;;;8.20;99.90;;;;;;2617590;47;20452;-80
2022/01/04 12:08:33;;;;;;;19.57;11.57;;;8.20;99.90;;;;;;2617465;47;20415;-80
2022/01/04 12:11:02;;;;;;;20.93;15.63;;;8.10;99.90;;;;;;2617815;47;20508;-79
2022/01/04 12:13:50;;;;;;;16.93;12.33;;;8.10;99.90;;;;;;2617460;54;20523;-81
2022/01/04 12:16:43;;;;;;;14.97;11.50;;;8.00;99.90;;;;;;2617510;51;20420;-79
2022/01/04 12:19:15;;;;;;;16.23;11.27;;;8.00;99.90;;;;;;2617310;47;20451;-79
2022/01/04 12:22:00;;;;;;;24.80;14.17;;;8.00;99.90;;;;;;2617495;47;20549;-80
2022/01/04 12:24:43;;;;;;;21.50;13.70;;;8.10;99.90;;;;;;2618376;39;22701;-78
2022/01/04 12:27:14;;;;;;;17.70;8.97;;;8.00;99.90;;;;;;2617962;47;20410;-81
2022/01/04 12:29:43;;;;;;;19.03;13.27;;;8.00;99.90;;;;;;2618924;39;20775;-79
2022/01/04 12:32:21;;;;;;;22.47;15.63;;;8.00;99.90;;;;;;2617636;47;20438;-80
2022/01/04 12:34:50;;;;;;;26.00;16.13;;;8.00;99.90;;;;;;2617759;54;20403;-80
2022/01/04 12:37:18;;;;;;;19.43;13.90;;;8.10;99.90;;;;;;2617396;47;20551;-80
2022/01/04 12:39:46;;;;;;;21.40;16.43;;;8.10;99.90;;;;;;2617765;47;20420;-79
2022/01/04 12:42:15;;;;;;;18.97;12.97;;;8.10;99.90;;;;;;2617959;47;20424;-80
2022/01/04 12:44:48;;;;;;;18.53;12.17;;;8.10;99.90;;;;;;2616241;39;20785;-79
2022/01/04 12:47:14;;;;;;;19.67;12.00;;;8.10;99.90;;;;;;2616333;46;20409;-80
2022/01/04 12:49:40;;;;;;;22.10;14.03;;;8.10;99.90;;;;;;2616725;47;20545;-81
2022/01/04 12:52:08;;;;;;;26.13;15.60;;;8.10;99.90;;;;;;2620815;54;20403;-80
2022/01/04 12:54:40;;;;;;;23.40;16.50;;;8.10;99.90;;;;;;2617344;47;20434;-79
2022/01/04 12:57:12;;;;;;;23.63;12.87;;;8.10;99.90;;;;;;2616633;47;20500;-80
2022/01/04 12:59:46;;;;;;;20.93;16.20;;;8.10;99.90;;;;;;2617064;46;20917;-80
2022/01/04 13:02:21;;;;;;;16.23;11.87;;;8.10;99.90;;;;;;2617109;54;20920;-80
2022/01/04 13:04:53;;;;;;;21.67;15.03;;;8.10;99.90;;;;;;2616879;47;21051;-79
2022/01/04 13:07:26;;;;;;;28.97;16.17;;;8.10;99.90;;;;;;2616431;47;20446;-81
2022/01/04 13:09:58;;;;;;;22.47;14.47;;;8.20;99.90;;;;;;2616576;47;20430;-78
2022/01/04 13:12:32;;;;;;;19.30;11.67;;;8.20;99.90;;;;;;2616844;54;20395;-79
2022/01/04 13:15:02;;;;;;;28.07;16.40;;;8.20;99.90;;;;;;2616649;47;20419;-80
2022/01/04 13:17:29;;;;;;;20.53;13.27;;;8.10;99.90;;;;;;2617219;54;20957;-79
2022/01/04 13:19:55;;;;;;;25.60;14.27;;;8.10;99.90;;;;;;2616654;47;20412;-80
2022/01/04 13:22:25;;;;;;;24.37;15.10;;;8.10;99.90;;;;;;2616464;47;20404;-80
2022/01/04 13:24:58;;;;;;;19.30;11.57;;;8.10;99.90;;;;;;2617034;54;20487;-81